KMYR/MYR METAR and TAF weather

Enter ICAO airport designator
Station Type Date Time Source
KMYR METAR 2020/01/26 03:56 UTC NOAA

KMYR 260356Z AUTO 24004KT 10SM CLR 08/05 A3003 RMK AO2 SLP168 T00780050


Station Type Date Time Source
KMYR Decoded METAR 2020/01/26 03:56 UTC NOAA

Myrtle Beach Air Force Base, SC, United States (KMYR) 33-41N 078-56W 8M
Jan 25, 2020 - 10:56 PM EST / 2020.01.26 0356 UTC
Wind: from the WSW (240 degrees) at 5 MPH (4 KT):0
Visibility: 10 mile(s):0
Sky conditions: clear
Temperature: 46.0 F (7.8 C)
Dew Point: 41.0 F (5.0 C)
Relative Humidity: 82%
Pressure (altimeter): 30.03 in. Hg (1016 hPa)
ob: KMYR 260356Z AUTO 24004KT 10SM CLR 08/05 A3003 RMK AO2 SLP168 T00780050
cycle: 4

Station Type Date Time Source
KMYR TAF 2020/01/25 18:36 UTC NOAA

TAF KMYR 251733Z 2518/2618 27011G17KT P6SM SKC
FM260900 29004KT P6SM SCT200
FM261200 32006KT P6SM SKC

Example: see airport list